Time;durP1;ratioP1;P1;durP2;ratioP2;P2;SDS_P1;SDS_P2;PMS_P1;PMS_P2;Temp;Humidity;BMP_temperature;BMP_pressure;BME280_temperature;BME280_humidity;BME280_pressure;Samples;Min_cycle;Max_cycle;Signal;HPM_P1;HPM_P2
2023/07/11 00:01:18;;;;;;;3.97;1.75;;;;;;;17.94;100.00;101589.69;5054587;28;20048;-44
2023/07/11 00:03:43;;;;;;;9.75;1.75;;;;;;;17.59;100.00;101519.59;5054660;28;20037;-48
2023/07/11 00:06:14;;;;;;;4.75;1.95;;;;;;;17.60;100.00;101525.78;5054342;28;20033;-46
2023/07/11 00:08:40;;;;;;;7.82;1.70;;;;;;;17.99;100.00;101592.97;5054754;28;20491;-45
2023/07/11 00:11:09;;;;;;;4.20;1.92;;;;;;;17.72;100.00;101544.63;5054495;28;20029;-50
2023/07/11 00:13:35;;;;;;;6.72;2.42;;;;;;;17.96;100.00;101599.31;5054402;28;20033;-47
2023/07/11 00:16:06;;;;;;;6.10;2.05;;;;;;;17.93;100.00;101585.28;5036734;28;20032;-46
2023/07/11 00:18:32;;;;;;;4.75;1.70;;;;;;;17.94;100.00;101579.91;5054413;28;20123;-48
2023/07/11 00:20:57;;;;;;;8.30;2.50;;;;;;;16.49;100.00;101337.06;5054067;28;20033;-50
2023/07/11 00:23:23;;;;;;;5.07;1.73;;;;;;;17.56;100.00;101510.88;5036886;28;20476;-46
2023/07/11 00:25:49;;;;;;;4.45;2.20;;;;;;;17.93;100.00;101566.66;5054535;28;20476;-46
2023/07/11 00:28:14;;;;;;;3.95;1.98;;;;;;;17.93;100.00;101583.50;5054574;28;20047;-44
2023/07/11 00:30:41;;;;;;;9.50;2.42;;;;;;;17.90;100.00;101566.81;5036517;28;20032;-45
2023/07/11 00:33:08;;;;;;;5.95;1.90;;;;;;;17.74;100.00;101548.09;5054169;28;20025;-46
2023/07/11 00:35:33;;;;;;;3.97;2.10;;;;;;;17.86;100.00;101558.09;5053369;28;20036;-51
2023/07/11 00:37:59;;;;;;;9.00;2.67;;;;;;;17.89;100.00;101565.94;5054081;28;20029;-46
2023/07/11 00:40:24;;;;;;;6.55;2.35;;;;;;;17.45;100.00;101482.97;5054099;28;20460;-47
2023/07/11 00:42:50;;;;;;;8.32;2.17;;;;;;;17.78;100.00;101536.34;5054374;28;20086;-48
2023/07/11 00:45:57;;;;;;;7.53;2.55;;;;;;;17.84;100.00;101551.13;5054193;28;20037;-46
2023/07/11 00:48:23;;;;;;;3.78;2.17;;;;;;;17.71;100.00;101534.06;5052837;28;20029;-46
2023/07/11 00:50:50;;;;;;;5.70;2.80;;;;;;;17.63;100.00;101507.81;5036016;28;20499;-46
2023/07/11 00:53:15;;;;;;;7.38;2.10;;;;;;;17.52;100.00;101488.84;5053815;28;20032;-45
2023/07/11 00:55:42;;;;;;;7.35;2.35;;;;;;;17.81;100.00;101524.66;5035962;28;20447;-46
2023/07/11 00:58:07;;;;;;;3.33;2.15;;;;;;;17.74;100.00;101533.91;5052510;28;20503;-48
2023/07/11 01:00:33;;;;;;;4.70;2.13;;;;;;;17.42;100.00;101453.84;5035645;28;20037;-47
2023/07/11 01:02:58;;;;;;;5.82;2.42;;;;;;;17.82;100.00;101526.38;5052811;28;20031;-50
2023/07/11 01:05:24;;;;;;;6.75;2.17;;;;;;;17.81;100.00;101522.84;5053739;28;20392;-52
2023/07/11 01:07:49;;;;;;;4.25;2.22;;;;;;;17.80;100.00;101521.16;5053757;28;20036;-50
2023/07/11 01:10:15;;;;;;;4.57;2.35;;;;;;;17.78;100.00;101517.69;5053468;28;20124;-45
2023/07/11 01:12:49;;;;;;;5.53;2.50;;;;;;;17.35;100.00;101443.59;5053668;28;20037;-48
2023/07/11 01:15:15;;;;;;;4.97;2.20;;;;;;;17.31;100.00;101442.88;5035698;28;20561;-52
2023/07/11 01:17:41;;;;;;;5.03;2.38;;;;;;;17.68;100.00;101516.47;5053626;28;20040;-50
2023/07/11 01:20:09;;;;;;;4.22;2.38;;;;;;;17.52;100.00;101487.97;5053490;28;20499;-45
2023/07/11 01:22:37;;;;;;;6.65;2.35;;;;;;;17.57;100.00;101510.78;5035561;28;20037;-47
2023/07/11 01:25:14;;;;;;;4.07;1.77;;;;;;;17.52;100.00;101515.47;5035085;28;20048;-47
2023/07/11 01:27:41;;;;;;;5.55;2.40;;;;;;;17.47;100.00;101498.88;5035602;28;20103;-52
2023/07/11 01:30:10;;;;;;;5.28;2.53;;;;;;;17.44;100.00;101499.03;5053250;28;20491;-46
2023/07/11 01:32:37;;;;;;;3.88;1.98;;;;;;;17.03;100.00;101418.63;5053380;28;20041;-51
2023/07/11 01:35:03;;;;;;;7.45;1.90;;;;;;;17.06;100.00;101421.13;5051948;28;20131;-48
2023/07/11 01:37:29;;;;;;;5.20;2.22;;;;;;;17.02;100.00;101411.56;5053152;28;20562;-48
2023/07/11 01:39:55;;;;;;;8.85;2.28;;;;;;;16.94;100.00;101403.13;5053023;28;20051;-45
2023/07/11 01:42:20;;;;;;;4.65;1.80;;;;;;;16.95;100.00;101402.19;5018970;28;20387;-46
2023/07/11 01:44:45;;;;;;;4.80;2.05;;;;;;;16.92;100.00;101388.19;5035096;28;20083;-47
2023/07/11 01:47:11;;;;;;;5.15;2.20;;;;;;;17.39;100.00;101467.34;5035214;28;20029;-47
2023/07/11 01:49:36;;;;;;;4.97;2.00;;;;;;;17.07;100.00;101390.94;5051705;28;20159;-47
2023/07/11 01:52:16;;;;;;;4.38;1.85;;;;;;;17.47;100.00;101460.75;5052854;28;20442;-46
2023/07/11 01:54:42;;;;;;;5.57;1.92;;;;;;;17.50;100.00;101452.59;5052884;28;20033;-47
2023/07/11 01:57:07;;;;;;;4.95;1.85;;;;;;;17.53;100.00;101458.63;5052847;28;20052;-50
2023/07/11 01:59:33;;;;;;;5.72;1.83;;;;;;;17.43;100.00;101426.28;5034991;28;20499;-46
2023/07/11 02:01:58;;;;;;;3.83;1.83;;;;;;;17.57;100.00;101440.75;5052730;28;20048;-48
2023/07/11 02:04:24;;;;;;;5.75;2.15;;;;;;;17.57;100.00;101438.09;5052816;28;20037;-48
2023/07/11 02:06:49;;;;;;;4.65;1.95;;;;;;;17.13;100.00;101357.84;5052438;28;20025;-43
2023/07/11 02:09:15;;;;;;;3.05;1.77;;;;;;;17.51;100.00;101422.38;5052274;28;20083;-48
2023/07/11 02:11:41;;;;;;;6.65;2.30;;;;;;;17.09;100.00;101358.94;5052707;28;20032;-48
2023/07/11 02:14:06;;;;;;;7.43;2.35;;;;;;;17.51;100.00;101425.06;5034547;28;20045;-46
2023/07/11 02:16:31;;;;;;;4.57;2.08;;;;;;;17.39;100.00;101400.81;5052392;28;20041;-45
2023/07/11 02:18:56;;;;;;;2.67;1.50;;;;;;;17.50;100.00;101415.34;5052377;28;20087;-46
2023/07/11 02:21:22;;;;;;;6.47;2.50;;;;;;;17.35;100.00;101396.56;5052137;28;20067;-52
2023/07/11 02:23:47;;;;;;;3.92;2.08;;;;;;;17.45;100.00;101413.75;5051093;28;20041;-48
2023/07/11 02:26:12;;;;;;;5.88;1.88;;;;;;;17.04;100.00;101334.38;5034556;28;20119;-45
2023/07/11 02:28:38;;;;;;;5.07;1.90;;;;;;;16.73;100.00;101288.06;5052397;28;20472;-46
2023/07/11 02:31:03;;;;;;;3.90;1.73;;;;;;;17.02;100.00;101333.56;5052335;28;20040;-47
2023/07/11 02:33:28;;;;;;;4.80;1.80;;;;;;;17.37;100.00;101402.66;5052363;28;20530;-46
2023/07/11 02:35:54;;;;;;;4.57;1.95;;;;;;;16.98;100.00;101329.38;5050976;28;20087;-47
2023/07/11 02:38:19;;;;;;;5.22;1.90;;;;;;;17.29;100.00;101388.91;5052036;28;20044;-50
2023/07/11 02:40:45;;;;;;;3.63;2.00;;;;;;;17.21;100.00;101384.91;5051305;28;20063;-47
2023/07/11 02:43:10;;;;;;;8.55;2.15;;;;;;;17.05;100.00;101363.53;5052140;28;20083;-47
2023/07/11 02:45:35;;;;;;;5.40;1.83;;;;;;;17.11;100.00;101376.53;5033185;28;20496;-47
2023/07/11 02:48:01;;;;;;;3.20;1.75;;;;;;;17.07;100.00;101371.44;5051816;28;20116;-47
2023/07/11 02:50:26;;;;;;;5.68;2.08;;;;;;;16.71;100.00;101318.31;5050812;28;21011;-48
2023/07/11 02:52:51;;;;;;;6.72;2.22;;;;;;;17.07;100.00;101368.78;5033995;28;20071;-45
2023/07/11 02:55:17;;;;;;;3.45;2.05;;;;;;;17.03;100.00;101354.78;5034037;28;20048;-45
2023/07/11 02:57:43;;;;;;;5.15;2.15;;;;;;;17.15;100.00;101367.47;5053640;28;20143;-46
2023/07/11 03:00:09;;;;;;;6.03;2.17;;;;;;;17.16;100.00;101353.19;5056177;28;20044;-47
2023/07/11 03:02:34;;;;;;;6.97;2.60;;;;;;;17.18;100.00;101343.38;5056065;28;20029;-49
2023/07/11 03:05:00;;;;;;;9.07;3.22;;;;;;;17.27;100.00;101363.31;5055940;28;20059;-46
2023/07/11 03:07:25;;;;;;;5.10;2.33;;;;;;;17.20;100.00;101344.13;5055884;28;20037;-48
2023/07/11 03:09:50;;;;;;;3.47;2.53;;;;;;;16.92;100.00;101293.31;5056228;28;20063;-48
2023/07/11 03:12:16;;;;;;;4.70;3.05;;;;;;;17.22;100.00;101347.56;5056128;28;20079;-45
2023/07/11 03:14:41;;;;;;;8.32;3.33;;;;;;;16.88;100.00;101267.81;5055811;28;20201;-45
2023/07/11 03:17:06;;;;;;;4.20;2.60;;;;;;;17.24;100.00;101332.41;5055875;28;20037;-44
2023/07/11 03:19:31;;;;;;;4.25;3.05;;;;;;;17.10;100.00;101318.09;5055765;28;20045;-47
2023/07/11 03:21:57;;;;;;;7.53;3.28;;;;;;;17.19;100.00;101329.09;5055757;28;20375;-46
2023/07/11 03:24:22;;;;;;;6.47;3.08;;;;;;;16.73;100.00;101260.63;5055552;28;20049;-46
2023/07/11 03:26:47;;;;;;;8.60;3.13;;;;;;;17.16;100.00;101339.06;5055810;28;20033;-44
2023/07/11 03:29:14;;;;;;;5.22;2.67;;;;;;;17.11;100.00;101325.13;5055671;28;20373;-44
2023/07/11 03:31:39;;;;;;;7.90;3.45;;;;;;;17.11;100.00;101336.63;5055610;28;20071;-46
2023/07/11 03:34:05;;;;;;;4.30;3.00;;;;;;;17.09;100.00;101319.03;5055542;28;20033;-47
2023/07/11 03:36:30;;;;;;;6.65;3.20;;;;;;;17.09;100.00;101321.69;5055443;28;20079;-47
2023/07/11 03:38:55;;;;;;;5.53;3.22;;;;;;;17.06;100.00;101319.19;5055400;28;20061;-45
2023/07/11 03:41:21;;;;;;;7.70;2.95;;;;;;;16.66;100.00;101246.78;5054201;28;20438;-46
2023/07/11 03:43:46;;;;;;;5.50;3.28;;;;;;;16.64;100.00;101243.34;5055345;28;20043;-50
2023/07/11 03:46:11;;;;;;;5.47;2.58;;;;;;;17.05;100.00;101310.34;5055425;28;20419;-50
2023/07/11 03:48:37;;;;;;;3.63;3.05;;;;;;;16.66;100.00;101241.47;5055222;28;20036;-46
2023/07/11 03:51:02;;;;;;;3.40;2.42;;;;;;;16.86;100.00;101288.31;5055125;28;20036;-45
2023/07/11 03:53:27;;;;;;;5.40;2.83;;;;;;;16.62;100.00;101226.63;5055072;28;20510;-51
2023/07/11 03:55:53;;;;;;;6.70;2.97;;;;;;;17.05;100.00;101296.19;5055199;28;20036;-47
2023/07/11 03:58:18;;;;;;;7.40;3.45;;;;;;;16.97;100.00;101283.28;5055010;28;20083;-48
2023/07/11 04:00:46;;;;;;;4.97;2.65;;;;;;;17.08;100.00;101291.56;5055040;28;20036;-47
2023/07/11 04:03:11;;;;;;;4.32;2.90;;;;;;;16.72;100.00;101230.50;5037104;28;20029;-48
2023/07/11 04:05:36;;;;;;;5.72;2.70;;;;;;;16.99;100.00;101265.44;5054833;28;20036;-46
2023/07/11 04:08:02;;;;;;;4.43;3.20;;;;;;;16.74;100.00;101222.47;5054609;28;20086;-46
2023/07/11 04:10:27;;;;;;;4.80;2.60;;;;;;;17.15;100.00;101289.44;5037131;28;20552;-46
2023/07/11 04:12:52;;;;;;;5.07;2.78;;;;;;;16.92;100.00;101239.25;5055059;28;20119;-46
2023/07/11 04:15:18;;;;;;;3.88;2.42;;;;;;;16.93;100.00;101241.81;5054802;28;20053;-44
2023/07/11 04:17:43;;;;;;;5.82;3.15;;;;;;;17.28;100.00;101283.41;5054800;28;20057;-47
2023/07/11 04:20:09;;;;;;;4.13;2.80;;;;;;;17.26;100.00;101268.47;5054410;28;20469;-53
2023/07/11 04:22:36;;;;;;;5.03;2.88;;;;;;;17.32;100.00;101292.09;5054168;28;20037;-46
2023/07/11 04:25:01;;;;;;;4.85;2.60;;;;;;;16.98;100.00;101220.34;5036961;28;20037;-48
2023/07/11 04:27:27;;;;;;;5.47;2.88;;;;;;;17.26;100.00;101273.78;5054715;28;20396;-46
2023/07/11 04:29:52;;;;;;;3.35;2.78;;;;;;;17.35;100.00;101271.50;5054471;28;20037;-46
2023/07/11 04:32:18;;;;;;;7.03;2.92;;;;;;;17.39;100.00;101281.03;5036573;28;20037;-51
2023/07/11 04:34:43;;;;;;;7.72;3.17;;;;;;;17.03;100.00;101204.97;5054271;28;20029;-45
2023/07/11 04:37:09;;;;;;;5.93;3.28;;;;;;;17.06;100.00;101204.81;5054163;28;20469;-49
2023/07/11 04:39:34;;;;;;;5.50;3.20;;;;;;;17.52;100.00;101272.38;5053853;28;20485;-46
2023/07/11 04:41:59;;;;;;;6.38;3.47;;;;;;;17.13;100.00;101201.72;5054137;28;20068;-50
2023/07/11 04:44:25;;;;;;;5.47;3.10;;;;;;;17.33;100.00;101225.50;5053939;28;20404;-45
2023/07/11 04:46:51;;;;;;;5.30;3.70;;;;;;;17.18;100.00;101193.53;5054138;28;20067;-49
2023/07/11 04:49:16;;;;;;;4.22;3.15;;;;;;;17.63;100.00;101267.38;5053923;28;20029;-52
2023/07/11 04:51:41;;;;;;;4.93;2.90;;;;;;;17.27;100.00;101206.34;5053978;28;20078;-46
2023/07/11 04:54:07;;;;;;;5.70;3.40;;;;;;;17.32;100.00;101202.47;5053896;28;20044;-47
2023/07/11 04:56:32;;;;;;;4.97;3.33;;;;;;;17.32;100.00;101186.50;5054106;28;20037;-46
2023/07/11 04:58:59;;;;;;;6.80;3.70;;;;;;;17.39;100.00;101185.25;5053882;28;20041;-48
2023/07/11 05:01:24;;;;;;;5.93;3.55;;;;;;;17.79;100.00;101244.28;5054119;28;20120;-46
2023/07/11 05:03:50;;;;;;;8.23;3.80;;;;;;;17.83;100.00;101244.00;5053995;28;20072;-45
2023/07/11 05:06:15;;;;;;;7.82;4.05;;;;;;;17.47;100.00;101178.63;5053741;28;20464;-46
2023/07/11 05:08:40;;;;;;;7.07;3.42;;;;;;;17.91;100.00;101232.94;5053744;28;20047;-46
2023/07/11 05:11:12;;;;;;;7.85;3.78;;;;;;;17.58;100.00;101170.94;5053502;28;20037;-48
2023/07/11 05:13:39;;;;;;;12.27;4.53;;;;;;;17.60;100.00;101166.41;5053391;28;20076;-44
2023/07/11 05:16:07;;;;;;;7.13;4.45;;;;;;;18.05;100.00;101227.69;5053700;28;20029;-46
2023/07/11 05:18:34;;;;;;;9.32;3.90;;;;;;;17.74;100.00;101166.47;5053533;28;20440;-45
2023/07/11 05:21:00;;;;;;;7.60;3.85;;;;;;;17.96;100.00;101193.59;5035059;28;20468;-47
2023/07/11 05:23:27;;;;;;;7.93;4.35;;;;;;;18.03;100.00;101213.63;5053644;28;20275;-47
2023/07/11 05:25:54;;;;;;;9.15;4.50;;;;;;;18.13;100.00;101219.25;5053356;28;20060;-50
2023/07/11 05:28:20;;;;;;;10.25;4.93;;;;;;;18.16;100.00;101213.75;5053179;28;20025;-49
2023/07/11 05:30:45;;;;;;;7.43;4.50;;;;;;;18.17;100.00;101199.47;5053386;28;20033;-45
2023/07/11 05:33:11;;;;;;;5.97;4.15;;;;;;;17.94;100.00;101152.88;5053275;28;20056;-47
2023/07/11 05:35:37;;;;;;;7.03;4.20;;;;;;;18.32;100.00;101198.59;5053118;28;20033;-48
2023/07/11 05:38:03;;;;;;;8.13;4.35;;;;;;;18.33;100.00;101174.50;5052909;28;20116;-49
2023/07/11 05:40:30;;;;;;;10.73;4.20;;;;;;;18.57;100.00;101190.03;5034807;28;20032;-51
2023/07/11 05:42:55;;;;;;;7.38;4.25;;;;;;;18.69;100.00;101197.28;5052744;28;20372;-44
2023/07/11 05:45:21;;;;;;;10.27;4.28;;;;;;;18.52;100.00;101131.66;5052594;28;20040;-45
2023/07/11 05:47:46;;;;;;;8.05;4.07;;;;;;;18.91;100.00;101182.56;5034976;28;20037;-46
2023/07/11 05:50:11;;;;;;;7.50;4.38;;;;;;;19.06;100.00;101181.59;5053011;28;20491;-46
2023/07/11 05:52:37;;;;;;;8.70;4.97;;;;;;;18.76;100.00;101122.16;5052854;28;20033;-48
2023/07/11 05:55:03;;;;;;;10.00;4.13;;;;;;;18.73;100.00;101097.50;5052796;28;20381;-46
2023/07/11 05:57:28;;;;;;;8.88;4.38;;;;;;;19.21;100.00;101158.44;5034904;28;20029;-47
2023/07/11 05:59:53;;;;;;;9.48;4.20;;;;;;;18.88;100.00;101105.41;5035013;28;20045;-45
2023/07/11 06:02:19;;;;;;;11.95;4.32;;;;;;;19.37;100.00;101161.00;5052879;28;20116;-46
2023/07/11 06:04:44;;;;;;;9.57;3.60;;;;;;;19.27;100.00;101111.81;5051250;28;20029;-45
2023/07/11 06:07:09;;;;;;;6.55;3.20;;;;;;;19.35;100.00;101094.34;5051294;28;20491;-50
2023/07/11 06:09:35;;;;;;;9.85;3.85;;;;;;;19.34;100.00;101057.97;5034829;28;20051;-50
2023/07/11 06:12:00;;;;;;;9.15;3.55;;;;;;;20.18;100.00;101173.47;5052536;28;20065;-47
2023/07/11 06:14:27;;;;;;;5.85;2.92;;;;;;;20.43;100.00;101183.44;5052346;28;20076;-45
2023/07/11 06:16:52;;;;;;;7.35;2.70;;;;;;;20.26;100.00;101108.84;5052562;28;20047;-47
2023/07/11 06:19:18;;;;;;;6.78;2.53;;;;;;;20.61;100.00;101142.03;5052076;28;20025;-45
2023/07/11 06:21:44;;;;;;;5.93;2.80;;;;;;;20.69;100.00;101129.00;5052620;28;20037;-44
2023/07/11 06:24:10;;;;;;;5.85;2.30;;;;;;;20.87;100.00;101124.19;5034899;28;20085;-46
2023/07/11 06:26:35;;;;;;;5.47;2.50;;;;;;;20.93;100.00;101102.34;5034308;28;20020;-47
2023/07/11 06:29:00;;;;;;;7.13;3.28;;;;;;;21.39;100.00;101150.78;5052422;28;20091;-47
2023/07/11 06:31:26;;;;;;;6.97;2.45;;;;;;;21.56;100.00;101147.72;5052232;28;20044;-48
2023/07/11 06:33:51;;;;;;;5.93;2.28;;;;;;;21.53;100.00;101119.34;5052077;28;20040;-48
2023/07/11 06:36:16;;;;;;;5.50;2.35;;;;;;;21.95;100.00;101168.94;5052338;28;20087;-46
2023/07/11 06:38:42;;;;;;;8.68;2.28;;;;;;;21.75;100.00;101116.78;5052046;28;20431;-50
2023/07/11 06:41:07;;;;;;;5.65;2.10;;;;;;;22.20;100.00;101165.28;5051050;28;20483;-51
2023/07/11 06:43:32;;;;;;;4.38;1.88;;;;;;;22.06;100.00;101117.22;5017733;28;20039;-46
2023/07/11 06:45:59;;;;;;;6.53;2.08;;;;;;;22.30;100.00;101131.41;5034219;28;20131;-47
2023/07/11 06:48:28;;;;;;;12.27;2.53;;;;;;;22.73;100.00;101177.31;5051747;28;20494;-46
2023/07/11 06:50:55;;;;;;;6.60;2.13;;;;;;;22.85;100.00;101170.97;5052110;28;20100;-50
2023/07/11 06:53:22;;;;;;;5.80;2.40;;;;;;;22.94;100.00;101160.34;5052243;28;20048;-46
2023/07/11 06:55:49;;;;;;;6.03;2.35;;;;;;;23.19;100.00;101185.28;5034244;28;20094;-46
2023/07/11 06:58:15;;;;;;;4.72;2.40;;;;;;;23.13;100.00;101157.09;5051489;28;20041;-45
2023/07/11 07:00:41;;;;;;;7.30;2.75;;;;;;;23.22;100.00;101160.88;5017509;28;20037;-44
2023/07/11 07:03:10;;;;;;;5.47;2.35;;;;;;;23.36;100.00;101161.47;5050843;28;20078;-46
2023/07/11 07:05:35;;;;;;;5.00;2.15;;;;;;;23.29;100.00;101127.19;5034265;28;20072;-48
2023/07/11 07:08:00;;;;;;;6.18;2.42;;;;;;;23.36;100.00;101117.63;5052123;28;20510;-47
2023/07/11 07:10:25;;;;;;;6.70;2.40;;;;;;;23.87;100.00;101182.44;5034378;28;20468;-48
2023/07/11 07:12:51;;;;;;;4.53;1.77;;;;;;;24.01;100.00;101184.81;5050755;28;20129;-46
2023/07/11 07:15:16;;;;;;;3.40;2.10;;;;;;;23.79;100.00;101123.91;5052155;28;20132;-47
2023/07/11 07:17:41;;;;;;;6.80;2.22;;;;;;;24.19;100.00;101186.03;5051710;28;20033;-48
2023/07/11 07:20:07;;;;;;;3.70;2.30;;;;;;;24.29;100.00;101186.09;5051745;28;20102;-49
2023/07/11 07:22:33;;;;;;;4.85;2.30;;;;;;;24.00;100.00;101124.81;5051854;28;20509;-47
2023/07/11 07:24:58;;;;;;;6.15;2.05;;;;;;;24.47;100.00;101190.78;5050242;28;20126;-49
2023/07/11 07:27:23;;;;;;;4.50;2.03;;;;;;;24.53;100.00;101181.31;5051826;28;20047;-49
2023/07/11 07:29:49;;;;;;;4.88;2.10;;;;;;;24.66;100.00;101192.75;5050329;28;20076;-50
2023/07/11 07:32:15;;;;;;;4.50;2.20;;;;;;;24.65;100.00;101196.44;5051576;28;20484;-51
2023/07/11 07:34:40;;;;;;;5.70;2.03;;;;;;;24.48;100.00;101132.44;5051442;28;20040;-47
2023/07/11 07:37:05;;;;;;;6.63;2.20;;;;;;;24.93;100.00;101181.47;5051689;28;20116;-48
2023/07/11 07:39:31;;;;;;;7.30;1.95;;;;;;;25.18;100.00;101199.91;5033961;28;20112;-45
2023/07/11 07:41:56;;;;;;;6.75;2.03;;;;;;;24.94;100.00;101130.19;5033790;28;20043;-49
2023/07/11 07:44:21;;;;;;;5.03;1.95;;;;;;;25.45;100.00;101185.84;5053804;28;20141;-49
2023/07/11 07:46:47;;;;;;;6.57;2.08;;;;;;;25.61;100.00;101184.34;5055197;28;20116;-46
2023/07/11 07:49:12;;;;;;;7.28;2.42;;;;;;;25.70;100.00;101140.38;5055751;28;20049;-46
2023/07/11 07:51:37;;;;;;;4.28;2.00;;;;;;;26.62;100.00;101192.13;5055248;28;20044;-46
2023/07/11 07:54:03;;;;;;;6.30;2.25;;;;;;;26.99;100.00;101198.47;5055176;28;20037;-46
2023/07/11 07:56:30;;;;;;;3.95;1.67;;;;;;;27.48;100.00;101182.94;5055145;28;20499;-45
2023/07/11 07:58:55;;;;;;;6.10;2.25;;;;;;;27.73;100.00;101203.91;5053643;28;20045;-49
2023/07/11 08:01:22;;;;;;;8.35;1.80;;;;;;;28.01;100.00;101199.28;5037172;28;20029;-45
2023/07/11 08:03:47;;;;;;;3.10;1.83;;;;;;;27.75;100.00;101150.50;5052765;28;20039;-51
2023/07/11 08:06:14;;;;;;;5.75;2.22;;;;;;;28.26;100.00;101193.13;5052392;28;20033;-48
2023/07/11 08:08:40;;;;;;;5.72;2.05;;;;;;;28.61;100.00;101190.41;5034653;28;20080;-47
2023/07/11 08:11:06;;;;;;;8.13;2.08;;;;;;;28.57;100.00;101166.50;5052316;28;20498;-49
2023/07/11 08:13:34;;;;;;;9.23;2.05;;;;;;;28.87;100.00;101223.81;5051948;28;20060;-48
2023/07/11 08:16:00;;;;;;;5.55;1.67;;;;;;;28.82;100.00;101209.06;5052317;28;20052;-46
2023/07/11 08:18:25;;;;;;;4.13;1.75;;;;;;;28.79;100.00;101209.38;5034702;28;20045;-50
2023/07/11 08:20:51;;;;;;;6.93;2.30;;;;;;;28.75;100.00;101191.75;5052210;28;20087;-48
2023/07/11 08:23:17;;;;;;;4.88;2.25;;;;;;;28.97;100.00;101200.19;5034628;28;20444;-46
2023/07/11 08:25:42;;;;;;;6.53;1.83;;;;;;;29.08;100.00;101190.09;5052178;28;20040;-50
2023/07/11 08:28:07;;;;;;;5.97;2.22;;;;;;;29.46;100.00;101198.63;5052058;28;20056;-49
2023/07/11 08:30:37;;;;;;;7.80;2.42;;;;;;;29.25;100.00;101148.53;5052262;28;20895;-51
2023/07/11 08:33:02;;;;;;;6.60;2.22;;;;;;;29.40;100.00;101182.16;5034662;28;20029;-48
2023/07/11 08:35:28;;;;;;;6.00;2.35;;;;;;;29.79;100.00;101188.75;5052002;28;20055;-51
2023/07/11 08:37:54;;;;;;;7.80;1.80;;;;;;;30.21;100.00;101201.44;5051695;28;20041;-48
2023/07/11 08:40:23;;;;;;;6.68;1.90;;;;;;;30.20;100.00;101208.72;5034235;28;20047;-49
2023/07/11 08:42:48;;;;;;;3.17;2.17;;;;;;;29.90;100.00;101165.91;5034101;28;20032;-50
2023/07/11 08:45:26;;;;;;;5.78;1.90;;;;;;;30.01;100.00;101179.16;5051649;28;20090;-48
2023/07/11 08:48:31;;;;;;;5.07;2.33;;;;;;;30.23;100.00;101218.41;5034150;28;20026;-48
2023/07/11 08:51:02;;;;;;;5.28;2.33;;;;;;;30.41;100.00;101220.00;5040694;28;20052;-52
2023/07/11 08:53:38;;;;;;;4.07;1.90;;;;;;;29.64;100.00;101157.84;5017760;28;20036;-52
2023/07/11 08:56:29;;;;;;;4.13;2.03;;;;;;;29.90;100.00;101199.31;5051220;28;20047;-46
2023/07/11 08:58:57;;;;;;;6.30;2.17;;;;;;;30.14;100.00;101209.41;5029326;28;20053;-47
2023/07/11 09:01:31;;;;;;;3.97;2.15;;;;;;;29.93;100.00;101214.44;5050492;28;20558;-49
2023/07/11 09:03:58;;;;;;;4.30;2.00;;;;;;;29.72;100.00;101185.00;5051442;28;20068;-47
2023/07/11 09:06:26;;;;;;;3.25;1.85;;;;;;;29.64;100.00;101189.53;5033299;28;20033;-48
2023/07/11 09:08:54;;;;;;;5.38;2.53;;;;;;;29.56;100.00;101188.50;5033200;28;20423;-51
2023/07/11 09:11:39;;;;;;;4.50;2.17;;;;;;;29.41;100.00;101206.41;5050804;28;20124;-48
2023/07/11 09:14:18;;;;;;;7.43;2.63;;;;;;;29.55;100.00;101204.94;5033117;28;20048;-50
2023/07/11 09:17:01;;;;;;;6.18;2.67;;;;;;;29.11;100.00;101133.69;5032830;28;20479;-48
2023/07/11 09:19:33;;;;;;;8.90;2.72;;;;;;;29.19;100.00;101187.94;5032629;28;20120;-49
2023/07/11 09:22:23;;;;;;;9.25;2.60;;;;;;;29.76;100.00;101188.22;5051199;28;20499;-47
2023/07/11 09:24:55;;;;;;;6.88;2.47;;;;;;;29.92;100.00;101188.28;5051179;28;20079;-48
2023/07/11 09:27:42;;;;;;;9.60;2.38;;;;;;;29.78;100.00;101149.06;5033497;28;20529;-47
2023/07/11 09:30:27;;;;;;;5.53;2.25;;;;;;;30.03;100.00;101131.84;5033132;28;20443;-48
2023/07/11 09:32:52;;;;;;;8.98;2.13;;;;;;;30.24;100.00;101201.09;5032937;28;20029;-48
2023/07/11 09:35:30;;;;;;;5.60;2.08;;;;;;;29.91;100.00;101190.19;5032806;28;20040;-50
2023/07/11 09:38:07;;;;;;;10.27;2.78;;;;;;;29.60;100.00;101132.03;5032681;28;20039;-51
2023/07/11 09:40:40;;;;;;;6.00;2.55;;;;;;;29.80;100.00;101184.19;5050705;28;20033;-50
2023/07/11 09:43:06;;;;;;;6.45;2.05;;;;;;;30.25;100.00;101197.34;5051386;28;20029;-48
2023/07/11 09:45:38;;;;;;;5.78;2.65;;;;;;;30.41;100.00;101187.41;5032896;28;20029;-47
2023/07/11 09:48:04;;;;;;;7.63;2.78;;;;;;;30.55;100.00;101194.00;5051527;28;20021;-50
2023/07/11 09:50:55;;;;;;;7.88;2.00;;;;;;;30.66;100.00;101190.94;5051179;28;20115;-48
2023/07/11 09:53:23;;;;;;;5.53;2.13;;;;;;;30.77;100.00;101182.44;5032422;28;20110;-52
2023/07/11 09:55:56;;;;;;;6.07;2.08;;;;;;;31.08;100.00;101193.47;5049806;28;20063;-49
2023/07/11 09:58:22;;;;;;;8.25;2.33;;;;;;;30.94;100.00;101162.38;5051755;28;20025;-47
2023/07/11 10:00:49;;;;;;;6.95;2.70;;;;;;;30.85;100.00;101141.69;5051628;28;20045;-47
2023/07/11 10:03:16;;;;;;;4.47;2.28;;;;;;;30.88;100.00;101186.69;5032411;28;20549;-55
2023/07/11 10:05:44;;;;;;;5.53;2.22;;;;;;;31.19;100.00;101164.03;5032028;28;20033;-52
2023/07/11 10:08:27;;;;;;;9.75;2.63;;;;;;;31.30;100.00;101138.31;5049742;28;20476;-49
2023/07/11 10:10:55;;;;;;;5.88;2.03;;;;;;;31.43;100.00;101156.81;5050255;28;20451;-50
2023/07/11 10:13:22;;;;;;;7.60;2.60;;;;;;;31.65;100.00;101132.38;5031758;28;20545;-49
2023/07/11 10:15:57;;;;;;;6.43;2.50;;;;;;;31.79;100.00;101168.88;5028374;28;20114;-47
2023/07/11 10:18:30;;;;;;;5.70;2.03;;;;;;;31.85;100.00;101170.03;5045715;28;20025;-48
2023/07/11 10:21:01;;;;;;;4.28;2.20;;;;;;;31.77;100.00;101179.94;5029578;28;20041;-49
2023/07/11 10:23:27;;;;;;;5.60;2.30;;;;;;;31.69;100.00;101136.47;5028788;28;20029;-48
2023/07/11 10:26:13;;;;;;;5.15;2.20;;;;;;;32.34;100.00;101163.25;5030065;28;20047;-48
2023/07/11 10:28:43;;;;;;;8.98;1.95;;;;;;;32.56;100.00;101189.66;5025688;28;20038;-49
2023/07/11 10:31:12;;;;;;;5.30;2.20;;;;;;;32.13;100.00;101138.56;5029710;28;20065;-50
2023/07/11 10:33:47;;;;;;;4.13;1.83;;;;;;;32.38;100.00;101180.06;5028834;28;20029;-51
2023/07/11 10:36:20;;;;;;;2.60;1.90;;;;;;;32.38;100.00;101183.66;5028645;28;20033;-54
2023/07/11 10:38:45;;;;;;;3.55;1.60;;;;;;;32.24;100.00;101182.56;5045454;28;20120;-51
2023/07/11 10:41:17;;;;;;;6.63;1.95;;;;;;;32.30;100.00;101159.19;5030010;28;20548;-50
2023/07/11 10:43:43;;;;;;;5.13;1.90;;;;;;;32.31;100.00;101111.88;5028660;28;20025;-52
2023/07/11 10:46:36;;;;;;;4.05;1.90;;;;;;;32.73;100.00;101155.78;5029877;28;20041;-50
2023/07/11 10:49:06;;;;;;;4.30;2.00;;;;;;;32.87;100.00;101147.81;5029024;28;20028;-47
2023/07/11 10:52:16;;;;;;;4.60;2.10;;;;;;;33.03;100.00;101161.25;5028262;28;20116;-48
2023/07/11 10:55:00;;;;;;;6.28;1.98;;;;;;;32.80;100.00;101131.34;5022923;28;20509;-47
2023/07/11 10:57:46;;;;;;;4.40;2.10;;;;;;;32.50;100.00;101157.66;5028066;28;20472;-46
2023/07/11 11:00:29;;;;;;;4.72;2.20;;;;;;;32.57;100.00;101153.22;5029142;28;20061;-49
2023/07/11 11:03:07;;;;;;;7.25;2.40;;;;;;;32.44;100.00;101161.13;5028105;28;20494;-51
2023/07/11 11:05:52;;;;;;;6.55;2.05;;;;;;;32.65;100.00;101163.19;5029841;28;20477;-55
2023/07/11 11:08:25;;;;;;;5.47;1.98;;;;;;;33.02;100.00;101165.00;5044782;28;20029;-54
2023/07/11 11:11:29;;;;;;;5.93;2.30;;;;;;;32.85;100.00;101154.28;5044325;28;20025;-47
2023/07/11 11:14:07;;;;;;;3.30;2.08;;;;;;;32.87;100.00;101110.47;5030652;28;20042;-47
2023/07/11 11:16:40;;;;;;;4.85;1.92;;;;;;;33.00;100.00;101157.03;5031720;28;20035;-48
2023/07/11 11:19:29;;;;;;;5.53;2.22;;;;;;;32.97;100.00;101159.28;5033188;28;20434;-49
2023/07/11 11:22:04;;;;;;;9.73;2.33;;;;;;;33.12;100.00;101119.25;5035596;28;20036;-46